Terminal Aerodrome Forecast
Issued by NWS

Home | Current Version | Previous Version | Text Only | Print | Product List | Glossary On
Versions: 1 2 3 4 5 6 7 8 9 10 11 12 13 14 15 16 17 18 19 20 21 22 23 24 25 26 27 28 29 30 31 32 33 34 35 36 37 38 39 40 41
000
FTUS43 KGLD 281657 AAB
TAFMCK
TAF AMD
KMCK 281657Z 2817/2912 03012KT 5SM -SHRA BR OVC015
      TEMPO 2817/2819 3SM -RA BR OVC009
     FM282300 03015G23KT P6SM SCT005 OVC015
     FM290800 02014KT P6SM OVC008
     FM290900 02015G23KT P6SM OVC010
     FM291100 02016G24KT 6SM -SN BR OVC015=

USA.gov is the U.S. government's official web portal to all federal, state and local government web resources and services.